Airfield :
LOGIN :

Register | Disclaimer

   EN    FR    IT 

 










Legend :    VFR   Marginal VFR   IFR   Intensive IFR   Very Intensive IFR
Visi :
Ceiling :
>= 8 km
>= 3000ft
5 to 8 km
1000 to 3000 ft
1500m to 5 km
500 to 1000 ft
800 to 1500m
200 to 500 ft
< 800m
< 200 ft
Symbols :   Thunderstorms  Fog  Heavy snow  Heavy precipitations  Wind > 20 kt
SIGMETs :     Misc.  Thunderstorms  Icing  Turbulence  Mountain Waves  Volcanic Ashes







- Airport Elevation : 699 ft
- IATA code : PAD


EDLP - Paderborn Lippstadt

CURRENT METAR :
  • 262350Z 16005KT CAVOK 11/08 Q1013

EXPIRED METARs :
  • 262320Z 13004KT 010V170 CAVOK 11/08 Q1013
  • 262250Z 15004KT CAVOK 12/09 Q1013
  • 262220Z VRB02KT CAVOK 13/08 Q1013
  • 262150Z VRB02KT CAVOK 13/08 Q1013
  • 262120Z 16003KT CAVOK 14/08 Q1013

TAF TAF EDLP
Valid from the 27 at 00:00 until the 28 at 00:00 UTC


262300Z 2700/2724 12004KT 9999 BKN040
BECMG 2709/2712 10009KT
TEMPO 2715/2724 SHRA BKN040CB
PROB30
TEMPO 2716/2724 TSRA BKN014CB
No reported NOTAMs for that airfield.
1 SIGMET reported for the Langen FIR (EDGG) :
 
Embedded thunderstorms
EDGG SIGMET 2 VALID 262200/270100 EDZF
EDGG LANGEN FIR EMBD TS FCST SW OF LINE N4930 E00630 - N4845 E00945 TOP FL390 MOV NE NC=



MET'MAP, your aeronautical weather chart ! - Copyright ORBIFLY December 2007 - Disclaimer

ORBIFLY MET'MAP TEAM :

Programming & Development : Alexandra Zaïnal
Concept & Development : Baudouin d'Aumeries
Co-Development & Prog : Marc-Olivier Méhu
Technical & hardware support : Manuel Goepfert

Contact : metmap@orbifly.com




SOURCES & CREDITS :

   NOAA